F/vphalene — FHLG — position and weather

sailwx.info

Track history (hours):
 
Tides and Currents Weather Stations Pressure Air Temp Water Temp Dewpoint Dewpoint Depression Visibility Wind Speed Wind Dir Waves Ship Positions

F/vphalene

Last reported at 2018-Feb-16 12:20 UTC. Time now 2018-Feb-18 04:51 UTC.
Position N 47°44' W 003°22'.

Length 14 m; draft 4 m.

Type: Fishing. MMSI: 228313000.

Date/timePositionNaut miles runAvg speedWind from/ knotsBaromVisibWave heightAir tempDewpointWater temp
2018-Feb-16 12:20N 47°44' W 003°22'0 0.0
2018-Feb-16 11:58N 47°44' W 003°22'0 0.0
2018-Feb-16 11:28N 47°44' W 003°22'0 0.0
2018-Feb-16 10:58N 47°44' W 003°22'0 0.0
2018-Feb-16 10:28N 47°44' W 003°22'0 0.0
2018-Feb-16 09:58N 47°44' W 003°22'0 0.0
2018-Feb-16 09:28N 47°44' W 003°22'0 0.0
2018-Feb-16 08:59N 47°44' W 003°22'0 0.0
2018-Feb-15 16:24N 47°44' W 003°22'0 0.0
2018-Feb-15 16:00N 47°44' W 003°22'0 0.0
2018-Feb-15 15:28N 47°44' W 003°22'0 0.0
2018-Feb-15 15:01N 47°44' W 003°22'0 0.0
2018-Feb-15 14:30N 47°44' W 003°22'0 0.0
2018-Feb-15 13:58N 47°44' W 003°22'0 0.0
2018-Feb-14 15:45N 47°44' W 003°22'0 0.0
2018-Feb-14 15:30N 47°44' W 003°22'0 0.0
2018-Feb-14 14:58N 47°44' W 003°22'0 0.0
2018-Feb-14 14:28N 47°44' W 003°22'0 0.0
2018-Feb-14 13:58N 47°44' W 003°22'0 0.0
2018-Feb-14 13:28N 47°44' W 003°22'0 0.0
2018-Feb-14 12:58N 47°44' W 003°22'0 0.0
2018-Feb-14 12:28N 47°44' W 003°22'0 0.0
2018-Feb-14 11:58N 47°44' W 003°22'0 0.0
2018-Feb-14 11:28N 47°44' W 003°22'0 0.0
2018-Feb-14 10:59N 47°44' W 003°22'0 0.0
2018-Feb-14 10:29N 47°44' W 003°22'0 0.0
2018-Feb-14 09:59N 47°44' W 003°22'0 0.0
2018-Feb-14 09:30N 47°44' W 003°22'0 0.0
2018-Feb-14 08:59N 47°44' W 003°22'0 0.0
2018-Feb-14 08:29N 47°44' W 003°22'0 0.0
2018-Feb-13 16:03N 47°44' W 003°22'0 0.0
2018-Feb-13 16:00N 47°44' W 003°22'0 0.0
2018-Feb-13 15:30N 47°44' W 003°22'0 0.0
2018-Feb-13 14:59N 47°44' W 003°22'0 0.0
2018-Feb-13 14:29N 47°44' W 003°22'0 0.0
2018-Feb-13 13:59N 47°44' W 003°22'0 0.0
2018-Feb-13 13:29N 47°44' W 003°22'0 0.0
2018-Feb-13 12:59N 47°44' W 003°22'0 0.0
2018-Feb-13 12:30N 47°44' W 003°22'0 0.0
2018-Feb-13 12:00N 47°44' W 003°22'0 0.0
2018-Feb-13 11:30N 47°44' W 003°22'0 0.0
2018-Feb-13 11:00N 47°44' W 003°22'0 0.0
2018-Feb-13 10:28N 47°44' W 003°22'0 0.0
2018-Feb-13 09:58N 47°44' W 003°22'0 0.0
2018-Feb-13 09:28N 47°44' W 003°22'0 0.0
2018-Feb-13 08:49N 47°44' W 003°22'0 0.0
2018-Feb-12 15:28N 47°44' W 003°22'0 0.0
2018-Feb-12 14:52N 47°44' W 003°22'0 0.0
2018-Feb-12 13:32N 47°44' W 003°22'0 0.0
2018-Feb-12 13:26N 47°44' W 003°22'0 0.0
2018-Feb-12 09:01N 47°44' W 003°22'0 0.5
2018-Feb-12 09:00N 47°44' W 003°22'0 0.6
2018-Feb-12 08:30N 47°44' W 003°22'0 0.0
2018-Feb-12 07:55N 47°44' W 003°22'0 0.0
2018-Feb-12 07:28N 47°44' W 003°22'0 0.0
2018-Feb-12 06:55N 47°44' W 003°22'0 0.0
2018-Feb-12 06:30N 47°44' W 003°22'0 0.0
2018-Feb-12 06:00N 47°44' W 003°22'0 0.0
2018-Feb-12 05:25N 47°44' W 003°22'0 0.2
2018-Feb-12 05:00N 47°44' W 003°22'0 0.4
2018-Feb-12 04:29N 47°44' W 003°22'0 0.0
2018-Feb-12 04:00N 47°44' W 003°22'0 0.0
2018-Feb-12 03:30N 47°44' W 003°22'0 0.0
2018-Feb-12 03:00N 47°44' W 003°22'0 1.0
2018-Feb-12 02:30N 47°43' W 003°22'3 5.6
2018-Feb-12 02:00N 47°41' W 003°22'3 6.0
2018-Feb-12 01:30N 47°38' W 003°21'3 5.0
2018-Feb-12 01:00N 47°35' W 003°20'2 4.3
2018-Feb-12 00:31N 47°34' W 003°18'2 3.1
2018-Feb-12 00:01N 47°33' W 003°15'1 2.8
2018-Feb-11 23:30N 47°35' W 003°15'2 3.6
2018-Feb-11 23:01N 47°34' W 003°17'1 2.3
2018-Feb-11 22:30N 47°33' W 003°17'1 2.9
2018-Feb-11 22:00N 47°34' W 003°14'2 3.3
2018-Feb-11 21:31N 47°35' W 003°16'2 4.0
2018-Feb-11 21:01N 47°34' W 003°19'4 8.5
2018-Feb-11 20:30N 47°32' W 003°24'1 2.9
2018-Feb-11 20:00N 47°31' W 003°26'2 3.7
2018-Feb-11 19:30N 47°30' W 003°28'2 3.7
2018-Feb-11 19:00N 47°29' W 003°30'2 3.7
2018-Feb-11 18:30N 47°28' W 003°32'2 3.7
2018-Feb-11 18:00N 47°28' W 003°35'2 3.7
2018-Feb-11 17:30N 47°28' W 003°38'2 3.8
2018-Feb-11 17:00N 47°28' W 003°41'1 2.9
2018-Feb-11 16:31N 47°26' W 003°41'2 3.5
2018-Feb-11 16:00N 47°26' W 003°39'1 2.6
2018-Feb-11 15:30N 47°28' W 003°39'2 3.7
2018-Feb-11 15:00N 47°27' W 003°41'1 1.2
2018-Feb-11 14:31N 47°27' W 003°42'2 3.2
2018-Feb-11 14:00N 47°26' W 003°39'1 2.9
2018-Feb-11 13:31N 47°27' W 003°38'2 3.9
2018-Feb-11 13:00N 47°28' W 003°41'1 2.9
2018-Feb-11 12:30N 47°26' W 003°41'2 3.5
2018-Feb-11 12:01N 47°26' W 003°38'1 2.4
2018-Feb-11 11:30N 47°28' W 003°38'2 3.8
2018-Feb-11 11:00N 47°27' W 003°41'1 2.8
2018-Feb-11 10:30N 47°26' W 003°40'1 2.7
2018-Feb-11 10:00N 47°27' W 003°38'1 2.3
2018-Feb-11 09:30N 47°28' W 003°38'2 3.9
2018-Feb-11 09:00N 47°28' W 003°41'1 2.9
2018-Feb-11 08:30N 47°26' W 003°41'2 3.4
2018-Feb-11 08:00N 47°26' W 003°39'1 2.5
2018-Feb-11 07:30N 47°28' W 003°38'2 3.4
2018-Feb-11 07:00N 47°27' W 003°41'1 1.5
2018-Feb-11 06:30N 47°26' W 003°41'2 3.6
2018-Feb-11 06:00N 47°27' W 003°38'1 2.7
2018-Feb-11 05:30N 47°28' W 003°39'2 3.5
2018-Feb-11 05:00N 47°27' W 003°41'1 2.9
2018-Feb-11 04:30N 47°26' W 003°40'2 3.5
2018-Feb-11 03:56N 47°27' W 003°38'2 3.8
2018-Feb-11 03:30N 47°28' W 003°40'2 3.6
2018-Feb-11 03:00N 47°27' W 003°42'2 3.7
2018-Feb-11 02:30N 47°26' W 003°45'2 3.4
2018-Feb-11 02:00N 47°25' W 003°47'5 3.6
2018-Feb-11 00:39N 47°21' W 003°47'1 3.1
2018-Feb-11 00:15N 47°19' W 003°46'1 3.6
2018-Feb-10 23:59N 47°19' W 003°45'3 2.0
2018-Feb-10 22:26N 47°22' W 003°45'2 2.8
2018-Feb-10 21:37N 47°20' W 003°47'1 3.8
2018-Feb-10 21:28N 47°20' W 003°47'2 3.5
2018-Feb-10 20:58N 47°19' W 003°44'2 3.5
2018-Feb-10 20:25N 47°19' W 003°41'2 3.5
2018-Feb-10 19:59N 47°19' W 003°39'2 3.5
2018-Feb-10 19:30N 47°19' W 003°37'2 3.4
2018-Feb-10 19:00N 47°20' W 003°35'2 3.2
2018-Feb-10 18:25N 47°21' W 003°33'2 3.5
2018-Feb-10 18:00N 47°22' W 003°34'2 3.7
2018-Feb-10 17:30N 47°23' W 003°37'2 2.9
2018-Feb-10 16:48N 47°25' W 003°38'1 3.4
2018-Feb-10 16:30N 47°26' W 003°37'2 3.4
2018-Feb-10 16:01N 47°27' W 003°35'2 3.5
2018-Feb-10 15:30N 47°26' W 003°32'2 3.6
2018-Feb-10 15:00N 47°25' W 003°30'0 0.7
2018-Feb-10 14:30N 47°26' W 003°30'2 3.9
2018-Feb-10 14:00N 47°27' W 003°33'2 4.0
2018-Feb-10 13:30N 47°27' W 003°36'2 3.1
2018-Feb-10 12:58N 47°28' W 003°37'2 3.6
2018-Feb-10 12:31N 47°28' W 003°35'2 3.4
2018-Feb-10 12:00N 47°27' W 003°32'2 3.2
2018-Feb-10 11:30N 47°27' W 003°34'2 3.3
2018-Feb-10 10:49N 47°28' W 003°37'1 3.7
2018-Feb-10 10:30N 47°29' W 003°36'0 0.9
2018-Feb-10 10:01N 47°28' W 003°35'2 4.2
2018-Feb-10 09:30N 47°27' W 003°38'1 2.9
2018-Feb-10 09:01N 47°26' W 003°38'2 3.2
2018-Feb-10 08:26N 47°27' W 003°35'2 3.8
2018-Feb-10 07:59N 47°28' W 003°34'2 3.5
2018-Feb-10 07:30N 47°28' W 003°37'2 3.3
2018-Feb-10 07:00N 47°27' W 003°36'1 2.5
2018-Feb-10 06:30N 47°27' W 003°35'2 3.3
2018-Feb-10 06:00N 47°29' W 003°35'2 3.6
2018-Feb-10 05:30N 47°28' W 003°38'2 3.9
2018-Feb-10 05:00N 47°26' W 003°38'2 3.9
2018-Feb-10 04:30N 47°24' W 003°38'2 3.4
2018-Feb-10 04:00N 47°23' W 003°36'2 3.9
2018-Feb-10 03:31N 47°22' W 003°34'2 3.0
2018-Feb-10 02:57N 47°23' W 003°31'4 8.9
2018-Feb-10 02:30N 47°27' W 003°29'4 8.8
2018-Feb-10 02:00N 47°31' W 003°27'4 8.9
2018-Feb-10 01:30N 47°35' W 003°25'5 9.0
2018-Feb-10 01:00N 47°39' W 003°23'4 7.3
2018-Feb-10 00:30N 47°43' W 003°21'1 1.1
2018-Feb-10 00:00N 47°43' W 003°22'1 1.2
2018-Feb-09 23:30N 47°44' W 003°22'0 0.0
2018-Feb-09 23:00N 47°44' W 003°22'0 0.0
2018-Feb-09 22:42N 47°44' W 003°22'4 5.3
2018-Feb-09 22:01N 47°40' W 003°22'4 8.6
2018-Feb-09 21:31N 47°36' W 003°23'4 9.0
2018-Feb-09 21:01N 47°33' W 003°29'2 0.8
2018-Feb-09 18:30N 47°33' W 003°31'7 0.8
2018-Feb-09 10:30N 47°28' W 003°37'1 3.0
2018-Feb-09 10:00N 47°27' W 003°36'1 0.3
2018-Feb-09 08:31N 47°27' W 003°37'5 1.6
2018-Feb-09 05:00N 47°30' W 003°30'2 1.6
2018-Feb-09 04:00N 47°30' W 003°32'4 2.8
2018-Feb-09 02:30N 47°26' W 003°30'5 3.4
2018-Feb-09 01:00N 47°31' W 003°31'5 1.9
2018-Feb-08 22:30N 47°27' W 003°29'2 3.7
2018-Feb-08 22:00N 47°29' W 003°30'2 1.1
2018-Feb-08 20:30N 47°30' W 003°32'3 3.3
2018-Feb-08 19:30N 47°26' W 003°31'1 0.2
2018-Feb-08 16:30N 47°27' W 003°32'3 3.2
2018-Feb-08 15:30N 47°27' W 003°37'2 1.5
2018-Feb-08 14:00N 47°28' W 003°34'2 3.8
2018-Feb-08 13:30N 47°29' W 003°36'2 1.9
2018-Feb-08 12:30N 47°27' W 003°35'2 3.3
2018-Feb-08 12:00N 47°29' W 003°36'2 3.7
2018-Feb-08 11:30N 47°28' W 003°38'2 1.3
2018-Feb-08 10:00N 47°29' W 003°36'2 3.6
2018-Feb-08 09:30N 47°28' W 003°37'2 3.0
2018-Feb-08 09:00N 47°27' W 003°35'7 2.0
2018-Feb-08 05:30N 47°34' W 003°35'8 7.8
2018-Feb-08 04:30N 47°40' W 003°28'4 1.2
2018-Feb-08 01:30N 47°39' W 003°23'4 8.1
2018-Feb-08 01:00N 47°35' W 003°25'3 5.8
2018-Feb-08 00:30N 47°33' W 003°28'2 3.6
2018-Feb-08 00:00N 47°32' W 003°29'2 3.6
2018-Feb-07 23:30N 47°30' W 003°30'2 3.7
2018-Feb-07 23:00N 47°28' W 003°30'2 3.7
2018-Feb-07 22:30N 47°26' W 003°29'2 3.6
2018-Feb-07 22:00N 47°25' W 003°28'2 3.6
2018-Feb-07 21:31N 47°23' W 003°27'9 0.8
2018-Feb-07 09:30N 47°31' W 003°35'2 3.6
2018-Feb-07 09:00N 47°31' W 003°38'2 1.3
2018-Feb-07 07:30N 47°31' W 003°35'2 3.6
2018-Feb-07 07:00N 47°31' W 003°37'2 3.8
2018-Feb-07 06:30N 47°29' W 003°38'1 1.2
2018-Feb-07 06:00N 47°29' W 003°37'2 3.6
2018-Feb-07 05:31N 47°29' W 003°34'1 2.5
2018-Feb-07 05:00N 47°30' W 003°33'2 4.0
2018-Feb-07 04:30N 47°31' W 003°36'2 3.5
2018-Feb-07 04:00N 47°30' W 003°37'4 2.8
2018-Feb-07 02:30N 47°28' W 003°32'2 3.6
2018-Feb-07 02:00N 47°29' W 003°30'2 4.0
2018-Feb-07 01:30N 47°31' W 003°31'2 2.4
2018-Feb-07 00:30N 47°29' W 003°32'1 2.3
2018-Feb-07 00:00N 47°29' W 003°30'2 4.1
2018-Feb-06 23:30N 47°31' W 003°31'1 2.7
2018-Feb-06 23:00N 47°31' W 003°33'2 3.7
2018-Feb-06 22:30N 47°29' W 003°32'1 2.6
2018-Feb-06 22:00N 47°29' W 003°30'2 4.2
2018-Feb-06 21:29N 47°31' W 003°30'7 6.8
2018-Feb-06 20:30N 47°36' W 003°24'5 9.2
2018-Feb-06 20:00N 47°41' W 003°22'3 6.2
2018-Feb-06 19:29N 47°44' W 003°22'2 5.2
2018-Feb-06 19:00N 47°41' W 003°22'4 8.3
2018-Feb-06 18:30N 47°37' W 003°24'6 5.4
2018-Feb-06 17:26N 47°34' W 003°31'2 3.8
2018-Feb-06 17:00N 47°33' W 003°31'2 3.8
2018-Feb-06 16:30N 47°31' W 003°33'2 3.5
2018-Feb-06 16:00N 47°29' W 003°33'2 3.6
2018-Feb-06 15:30N 47°29' W 003°35'2 4.0
2018-Feb-06 15:00N 47°29' W 003°38'0 0.6
2018-Feb-06 14:30N 47°29' W 003°39'2 3.8
2018-Feb-06 14:00N 47°29' W 003°36'2 3.7
2018-Feb-06 13:30N 47°31' W 003°36'2 3.3
2018-Feb-06 13:00N 47°31' W 003°39'2 3.4
2018-Feb-06 12:30N 47°29' W 003°39'  
Track history (hours):
 
Tides and Currents Weather Stations Pressure Air Temp Water Temp Dewpoint Dewpoint Depression Visibility Wind Speed Wind Dir Waves Ship Positions

F/vphalene

Last reported at 2018-Feb-16 12:20 UTC. Time now 2018-Feb-18 04:51 UTC.
Position N 47°44' W 003°22'.

Length 14 m; draft 4 m.

Type: Fishing. MMSI: 228313000.

Date/timePositionNaut miles runAvg speedWind from/ knotsBaromVisibWave heightAir tempDewpointWater temp
2018-Feb-16 12:20N 47°44' W 003°22'0 0.0
2018-Feb-16 11:58N 47°44' W 003°22'0 0.0
2018-Feb-16 11:28N 47°44' W 003°22'0 0.0
2018-Feb-16 10:58N 47°44' W 003°22'0 0.0
2018-Feb-16 10:28N 47°44' W 003°22'0 0.0
2018-Feb-16 09:58N 47°44' W 003°22'0 0.0
2018-Feb-16 09:28N 47°44' W 003°22'0 0.0
2018-Feb-16 08:59N 47°44' W 003°22'0 0.0
2018-Feb-15 16:24N 47°44' W 003°22'0 0.0
2018-Feb-15 16:00N 47°44' W 003°22'0 0.0
2018-Feb-15 15:28N 47°44' W 003°22'0 0.0
2018-Feb-15 15:01N 47°44' W 003°22'0 0.0
2018-Feb-15 14:30N 47°44' W 003°22'0 0.0
2018-Feb-15 13:58N 47°44' W 003°22'0 0.0
2018-Feb-14 15:45N 47°44' W 003°22'0 0.0
2018-Feb-14 15:30N 47°44' W 003°22'0 0.0
2018-Feb-14 14:58N 47°44' W 003°22'0 0.0
2018-Feb-14 14:28N 47°44' W 003°22'0 0.0
2018-Feb-14 13:58N 47°44' W 003°22'0 0.0
2018-Feb-14 13:28N 47°44' W 003°22'0 0.0
2018-Feb-14 12:58N 47°44' W 003°22'0 0.0
2018-Feb-14 12:28N 47°44' W 003°22'0 0.0
2018-Feb-14 11:58N 47°44' W 003°22'0 0.0
2018-Feb-14 11:28N 47°44' W 003°22'0 0.0
2018-Feb-14 10:59N 47°44' W 003°22'0 0.0
2018-Feb-14 10:29N 47°44' W 003°22'0 0.0
2018-Feb-14 09:59N 47°44' W 003°22'0 0.0
2018-Feb-14 09:30N 47°44' W 003°22'0 0.0
2018-Feb-14 08:59N 47°44' W 003°22'0 0.0
2018-Feb-14 08:29N 47°44' W 003°22'0 0.0
2018-Feb-13 16:03N 47°44' W 003°22'0 0.0
2018-Feb-13 16:00N 47°44' W 003°22'0 0.0
2018-Feb-13 15:30N 47°44' W 003°22'0 0.0
2018-Feb-13 14:59N 47°44' W 003°22'0 0.0
2018-Feb-13 14:29N 47°44' W 003°22'0 0.0
2018-Feb-13 13:59N 47°44' W 003°22'0 0.0
2018-Feb-13 13:29N 47°44' W 003°22'0 0.0
2018-Feb-13 12:59N 47°44' W 003°22'0 0.0
2018-Feb-13 12:30N 47°44' W 003°22'0 0.0
2018-Feb-13 12:00N 47°44' W 003°22'0 0.0
2018-Feb-13 11:30N 47°44' W 003°22'0 0.0
2018-Feb-13 11:00N 47°44' W 003°22'0 0.0
2018-Feb-13 10:28N 47°44' W 003°22'0 0.0
2018-Feb-13 09:58N 47°44' W 003°22'0 0.0
2018-Feb-13 09:28N 47°44' W 003°22'0 0.0
2018-Feb-13 08:49N 47°44' W 003°22'0 0.0
2018-Feb-12 15:28N 47°44' W 003°22'0 0.0
2018-Feb-12 14:52N 47°44' W 003°22'0 0.0
2018-Feb-12 13:32N 47°44' W 003°22'0 0.0
2018-Feb-12 13:26N 47°44' W 003°22'0 0.0
2018-Feb-12 09:01N 47°44' W 003°22'0 0.5
2018-Feb-12 09:00N 47°44' W 003°22'0 0.6
2018-Feb-12 08:30N 47°44' W 003°22'0 0.0
2018-Feb-12 07:55N 47°44' W 003°22'0 0.0
2018-Feb-12 07:28N 47°44' W 003°22'0 0.0
2018-Feb-12 06:55N 47°44' W 003°22'0 0.0
2018-Feb-12 06:30N 47°44' W 003°22'0 0.0
2018-Feb-12 06:00N 47°44' W 003°22'0 0.0
2018-Feb-12 05:25N 47°44' W 003°22'0 0.2
2018-Feb-12 05:00N 47°44' W 003°22'0 0.4
2018-Feb-12 04:29N 47°44' W 003°22'0 0.0
2018-Feb-12 04:00N 47°44' W 003°22'0 0.0
2018-Feb-12 03:30N 47°44' W 003°22'0 0.0
2018-Feb-12 03:00N 47°44' W 003°22'0 1.0
2018-Feb-12 02:30N 47°43' W 003°22'3 5.6
2018-Feb-12 02:00N 47°41' W 003°22'3 6.0
2018-Feb-12 01:30N 47°38' W 003°21'3 5.0
2018-Feb-12 01:00N 47°35' W 003°20'2 4.3
2018-Feb-12 00:31N 47°34' W 003°18'2 3.1
2018-Feb-12 00:01N 47°33' W 003°15'1 2.8
2018-Feb-11 23:30N 47°35' W 003°15'2 3.6
2018-Feb-11 23:01N 47°34' W 003°17'1 2.3
2018-Feb-11 22:30N 47°33' W 003°17'1 2.9
2018-Feb-11 22:00N 47°34' W 003°14'2 3.3
2018-Feb-11 21:31N 47°35' W 003°16'2 4.0
2018-Feb-11 21:01N 47°34' W 003°19'4 8.5
2018-Feb-11 20:30N 47°32' W 003°24'1 2.9
2018-Feb-11 20:00N 47°31' W 003°26'2 3.7
2018-Feb-11 19:30N 47°30' W 003°28'2 3.7
2018-Feb-11 19:00N 47°29' W 003°30'2 3.7
2018-Feb-11 18:30N 47°28' W 003°32'2 3.7
2018-Feb-11 18:00N 47°28' W 003°35'2 3.7
2018-Feb-11 17:30N 47°28' W 003°38'2 3.8
2018-Feb-11 17:00N 47°28' W 003°41'1 2.9
2018-Feb-11 16:31N 47°26' W 003°41'2 3.5
2018-Feb-11 16:00N 47°26' W 003°39'1 2.6
2018-Feb-11 15:30N 47°28' W 003°39'2 3.7
2018-Feb-11 15:00N 47°27' W 003°41'1 1.2
2018-Feb-11 14:31N 47°27' W 003°42'2 3.2
2018-Feb-11 14:00N 47°26' W 003°39'1 2.9
2018-Feb-11 13:31N 47°27' W 003°38'2 3.9
2018-Feb-11 13:00N 47°28' W 003°41'1 2.9
2018-Feb-11 12:30N 47°26' W 003°41'2 3.5
2018-Feb-11 12:01N 47°26' W 003°38'1 2.4
2018-Feb-11 11:30N 47°28' W 003°38'2 3.8
2018-Feb-11 11:00N 47°27' W 003°41'1 2.8
2018-Feb-11 10:30N 47°26' W 003°40'1 2.7
2018-Feb-11 10:00N 47°27' W 003°38'1 2.3
2018-Feb-11 09:30N 47°28' W 003°38'2 3.9
2018-Feb-11 09:00N 47°28' W 003°41'1 2.9
2018-Feb-11 08:30N 47°26' W 003°41'2 3.4
2018-Feb-11 08:00N 47°26' W 003°39'1 2.5
2018-Feb-11 07:30N 47°28' W 003°38'2 3.4
2018-Feb-11 07:00N 47°27' W 003°41'1 1.5
2018-Feb-11 06:30N 47°26' W 003°41'2 3.6
2018-Feb-11 06:00N 47°27' W 003°38'1 2.7
2018-Feb-11 05:30N 47°28' W 003°39'2 3.5
2018-Feb-11 05:00N 47°27' W 003°41'1 2.9
2018-Feb-11 04:30N 47°26' W 003°40'2 3.5
2018-Feb-11 03:56N 47°27' W 003°38'2 3.8
2018-Feb-11 03:30N 47°28' W 003°40'2 3.6
2018-Feb-11 03:00N 47°27' W 003°42'2 3.7
2018-Feb-11 02:30N 47°26' W 003°45'2 3.4
2018-Feb-11 02:00N 47°25' W 003°47'5 3.6
2018-Feb-11 00:39N 47°21' W 003°47'1 3.1
2018-Feb-11 00:15N 47°19' W 003°46'1 3.6
2018-Feb-10 23:59N 47°19' W 003°45'3 2.0
2018-Feb-10 22:26N 47°22' W 003°45'2 2.8
2018-Feb-10 21:37N 47°20' W 003°47'1 3.8
2018-Feb-10 21:28N 47°20' W 003°47'2 3.5
2018-Feb-10 20:58N 47°19' W 003°44'2 3.5
2018-Feb-10 20:25N 47°19' W 003°41'2 3.5
2018-Feb-10 19:59N 47°19' W 003°39'2 3.5
2018-Feb-10 19:30N 47°19' W 003°37'2 3.4
2018-Feb-10 19:00N 47°20' W 003°35'2 3.2
2018-Feb-10 18:25N 47°21' W 003°33'2 3.5
2018-Feb-10 18:00N 47°22' W 003°34'2 3.7
2018-Feb-10 17:30N 47°23' W 003°37'2 2.9
2018-Feb-10 16:48N 47°25' W 003°38'1 3.4
2018-Feb-10 16:30N 47°26' W 003°37'2 3.4
2018-Feb-10 16:01N 47°27' W 003°35'2 3.5
2018-Feb-10 15:30N 47°26' W 003°32'2 3.6
2018-Feb-10 15:00N 47°25' W 003°30'0 0.7
2018-Feb-10 14:30N 47°26' W 003°30'2 3.9
2018-Feb-10 14:00N 47°27' W 003°33'2 4.0
2018-Feb-10 13:30N 47°27' W 003°36'2 3.1
2018-Feb-10 12:58N 47°28' W 003°37'2 3.6
2018-Feb-10 12:31N 47°28' W 003°35'2 3.4
2018-Feb-10 12:00N 47°27' W 003°32'2 3.2
2018-Feb-10 11:30N 47°27' W 003°34'2 3.3
2018-Feb-10 10:49N 47°28' W 003°37'1 3.7
2018-Feb-10 10:30N 47°29' W 003°36'0 0.9
2018-Feb-10 10:01N 47°28' W 003°35'2 4.2
2018-Feb-10 09:30N 47°27' W 003°38'1 2.9
2018-Feb-10 09:01N 47°26' W 003°38'2 3.2
2018-Feb-10 08:26N 47°27' W 003°35'2 3.8
2018-Feb-10 07:59N 47°28' W 003°34'2 3.5
2018-Feb-10 07:30N 47°28' W 003°37'2 3.3
2018-Feb-10 07:00N 47°27' W 003°36'1 2.5
2018-Feb-10 06:30N 47°27' W 003°35'2 3.3
2018-Feb-10 06:00N 47°29' W 003°35'2 3.6
2018-Feb-10 05:30N 47°28' W 003°38'2 3.9
2018-Feb-10 05:00N 47°26' W 003°38'2 3.9
2018-Feb-10 04:30N 47°24' W 003°38'2 3.4
2018-Feb-10 04:00N 47°23' W 003°36'2 3.9
2018-Feb-10 03:31N 47°22' W 003°34'2 3.0
2018-Feb-10 02:57N 47°23' W 003°31'4 8.9
2018-Feb-10 02:30N 47°27' W 003°29'4 8.8
2018-Feb-10 02:00N 47°31' W 003°27'4 8.9
2018-Feb-10 01:30N 47°35' W 003°25'5 9.0
2018-Feb-10 01:00N 47°39' W 003°23'4 7.3
2018-Feb-10 00:30N 47°43' W 003°21'1 1.1
2018-Feb-10 00:00N 47°43' W 003°22'1 1.2
2018-Feb-09 23:30N 47°44' W 003°22'0 0.0
2018-Feb-09 23:00N 47°44' W 003°22'0 0.0
2018-Feb-09 22:42N 47°44' W 003°22'4 5.3
2018-Feb-09 22:01N 47°40' W 003°22'4 8.6
2018-Feb-09 21:31N 47°36' W 003°23'4 9.0
2018-Feb-09 21:01N 47°33' W 003°29'2 0.8
2018-Feb-09 18:30N 47°33' W 003°31'7 0.8
2018-Feb-09 10:30N 47°28' W 003°37'1 3.0
2018-Feb-09 10:00N 47°27' W 003°36'1 0.3
2018-Feb-09 08:31N 47°27' W 003°37'5 1.6
2018-Feb-09 05:00N 47°30' W 003°30'2 1.6
2018-Feb-09 04:00N 47°30' W 003°32'4 2.8
2018-Feb-09 02:30N 47°26' W 003°30'5 3.4
2018-Feb-09 01:00N 47°31' W 003°31'5 1.9
2018-Feb-08 22:30N 47°27' W 003°29'2 3.7
2018-Feb-08 22:00N 47°29' W 003°30'2 1.1
2018-Feb-08 20:30N 47°30' W 003°32'3 3.3
2018-Feb-08 19:30N 47°26' W 003°31'1 0.2
2018-Feb-08 16:30N 47°27' W 003°32'3 3.2
2018-Feb-08 15:30N 47°27' W 003°37'2 1.5
2018-Feb-08 14:00N 47°28' W 003°34'2 3.8
2018-Feb-08 13:30N 47°29' W 003°36'2 1.9
2018-Feb-08 12:30N 47°27' W 003°35'2 3.3
2018-Feb-08 12:00N 47°29' W 003°36'2 3.7
2018-Feb-08 11:30N 47°28' W 003°38'2 1.3
2018-Feb-08 10:00N 47°29' W 003°36'2 3.6
2018-Feb-08 09:30N 47°28' W 003°37'2 3.0
2018-Feb-08 09:00N 47°27' W 003°35'7 2.0
2018-Feb-08 05:30N 47°34' W 003°35'8 7.8
2018-Feb-08 04:30N 47°40' W 003°28'4 1.2
2018-Feb-08 01:30N 47°39' W 003°23'4 8.1
2018-Feb-08 01:00N 47°35' W 003°25'3 5.8
2018-Feb-08 00:30N 47°33' W 003°28'2 3.6
2018-Feb-08 00:00N 47°32' W 003°29'2 3.6
2018-Feb-07 23:30N 47°30' W 003°30'2 3.7
2018-Feb-07 23:00N 47°28' W 003°30'2 3.7
2018-Feb-07 22:30N 47°26' W 003°29'2 3.6
2018-Feb-07 22:00N 47°25' W 003°28'2 3.6
2018-Feb-07 21:31N 47°23' W 003°27'9 0.8
2018-Feb-07 09:30N 47°31' W 003°35'2 3.6
2018-Feb-07 09:00N 47°31' W 003°38'2 1.3
2018-Feb-07 07:30N 47°31' W 003°35'2 3.6
2018-Feb-07 07:00N 47°31' W 003°37'2 3.8
2018-Feb-07 06:30N 47°29' W 003°38'1 1.2
2018-Feb-07 06:00N 47°29' W 003°37'2 3.6
2018-Feb-07 05:31N 47°29' W 003°34'1 2.5
2018-Feb-07 05:00N 47°30' W 003°33'2 4.0
2018-Feb-07 04:30N 47°31' W 003°36'2 3.5
2018-Feb-07 04:00N 47°30' W 003°37'4 2.8
2018-Feb-07 02:30N 47°28' W 003°32'2 3.6
2018-Feb-07 02:00N 47°29' W 003°30'2 4.0
2018-Feb-07 01:30N 47°31' W 003°31'2 2.4
2018-Feb-07 00:30N 47°29' W 003°32'1 2.3
2018-Feb-07 00:00N 47°29' W 003°30'2 4.1
2018-Feb-06 23:30N 47°31' W 003°31'1 2.7
2018-Feb-06 23:00N 47°31' W 003°33'2 3.7
2018-Feb-06 22:30N 47°29' W 003°32'1 2.6
2018-Feb-06 22:00N 47°29' W 003°30'2 4.2
2018-Feb-06 21:29N 47°31' W 003°30'7 6.8
2018-Feb-06 20:30N 47°36' W 003°24'5 9.2
2018-Feb-06 20:00N 47°41' W 003°22'3 6.2
2018-Feb-06 19:29N 47°44' W 003°22'2 5.2
2018-Feb-06 19:00N 47°41' W 003°22'4 8.3
2018-Feb-06 18:30N 47°37' W 003°24'6 5.4
2018-Feb-06 17:26N 47°34' W 003°31'2 3.8
2018-Feb-06 17:00N 47°33' W 003°31'2 3.8
2018-Feb-06 16:30N 47°31' W 003°33'2 3.5
2018-Feb-06 16:00N 47°29' W 003°33'2 3.6
2018-Feb-06 15:30N 47°29' W 003°35'2 4.0
2018-Feb-06 15:00N 47°29' W 003°38'0 0.6
2018-Feb-06 14:30N 47°29' W 003°39'2 3.8
2018-Feb-06 14:00N 47°29' W 003°36'2 3.7
2018-Feb-06 13:30N 47°31' W 003°36'2 3.3
2018-Feb-06 13:00N 47°31' W 003°39'2 3.4
2018-Feb-06 12:30N 47°29' W 003°39'  

Dump ship's entire track history